KEPH/EPH METAR and TAF weather

Enter ICAO airport designator
Station Type Date Time Source
KEPH METAR 2019/08/19 12:53 UTC NOAA

KEPH 191253Z AUTO 30007KT 10SM CLR 19/07 A2980 RMK AO2 SLP081 T01890067


Station Type Date Time Source
KEPH Decoded METAR 2019/08/19 12:53 UTC NOAA

Station name not available
Aug 19, 2019 - 08:53 AM EDT / 2019.08.19 1253 UTC
Wind: from the WNW (300 degrees) at 8 MPH (7 KT):0
Visibility: 10 mile(s):0
Sky conditions: clear
Temperature: 66.0 F (18.9 C)
Dew Point: 44.1 F (6.7 C)
Relative Humidity: 44%
Pressure (altimeter): 29.8 in. Hg (1009 hPa)
ob: KEPH 191253Z AUTO 30007KT 10SM CLR 19/07 A2980 RMK AO2 SLP081 T01890067
cycle: 13

Station Type Date Time Source
KEPH TAF UTC NOAA

Error!

Example: see airport list